createdAt,value
2022-11-16T00:00:06.566Z,11.44
2022-11-16T00:03:33.134Z,11.71
2022-11-16T00:06:41.717Z,11.55
2022-11-16T00:09:48.285Z,11.65
2022-11-16T00:12:54.300Z,11.77
2022-11-16T00:16:00.638Z,11.65
2022-11-16T00:19:07.507Z,11.34
2022-11-16T00:22:13.556Z,11.46
2022-11-16T00:25:19.525Z,11.40
2022-11-16T00:28:25.457Z,11.49
2022-11-16T00:31:33.570Z,11.21
2022-11-16T00:34:40.694Z,11.34
2022-11-16T00:37:46.680Z,11.55
2022-11-16T00:40:53.186Z,11.58
2022-11-16T00:43:59.118Z,11.63
2022-11-16T00:47:05.200Z,11.54
2022-11-16T00:50:11.422Z,11.44
2022-11-16T00:53:18.180Z,11.62
2022-11-16T00:56:24.279Z,11.87
2022-11-16T00:59:30.426Z,11.72
2022-11-16T01:02:38.165Z,11.82
2022-11-16T01:05:44.127Z,11.94
2022-11-16T01:08:50.105Z,12.03
2022-11-16T01:12:10.910Z,11.92
2022-11-16T01:15:17.367Z,11.98
2022-11-16T01:18:24.412Z,12.11
2022-11-16T01:21:30.535Z,12.17
2022-11-16T01:24:36.642Z,12.14
2022-11-16T01:27:42.994Z,12.06
2022-11-16T01:30:53.978Z,11.65
2022-11-16T01:34:00.116Z,11.58
2022-11-16T01:37:07.983Z,11.66
2022-11-16T01:40:17.613Z,11.46
2022-11-16T01:43:25.187Z,11.58
2022-11-16T01:46:37.217Z,11.78
2022-11-16T01:49:45.949Z,11.70
2022-11-16T01:52:56.620Z,11.60
2022-11-16T01:56:04.205Z,11.44
2022-11-16T01:59:22.394Z,11.35
2022-11-16T02:02:28.901Z,11.51
2022-11-16T02:05:40.900Z,11.51
2022-11-16T02:09:13.931Z,11.80
2022-11-16T02:12:33.358Z,11.74
2022-11-16T02:15:41.482Z,11.62
2022-11-16T02:19:00.294Z,11.80
2022-11-16T02:22:09.608Z,11.69
2022-11-16T02:25:18.209Z,11.62
2022-11-16T02:28:29.746Z,11.49
2022-11-16T02:31:37.273Z,11.43
2022-11-16T02:34:43.897Z,11.22
2022-11-16T02:37:55.368Z,10.89
2022-11-16T02:41:03.615Z,10.72
2022-11-16T02:44:12.302Z,10.85
2022-11-16T02:47:21.008Z,10.75
2022-11-16T02:50:28.100Z,10.97
2022-11-16T02:53:37.323Z,11.08
2022-11-16T02:56:45.003Z,10.86
2022-11-16T02:59:53.172Z,10.65
2022-11-16T03:03:13.513Z,10.37
2022-11-16T03:06:21.859Z,10.34
2022-11-16T03:09:31.135Z,10.46
2022-11-16T03:12:37.037Z,10.37
2022-11-16T03:15:46.819Z,10.51
2022-11-16T03:18:56.776Z,10.30
2022-11-16T03:22:05.530Z,10.42
2022-11-16T03:25:13.609Z,10.46
2022-11-16T03:28:22.664Z,10.61
2022-11-16T03:31:30.755Z,10.58
2022-11-16T03:34:38.873Z,10.74
2022-11-16T03:37:46.032Z,11.01
2022-11-16T03:40:52.467Z,11.04
2022-11-16T03:43:59.394Z,11.13
2022-11-16T03:47:05.497Z,11.26
2022-11-16T03:50:11.762Z,11.43
2022-11-16T03:53:17.840Z,11.52
2022-11-16T03:56:25.442Z,11.71
2022-11-16T03:59:31.067Z,11.91
2022-11-16T04:02:37.756Z,11.86
2022-11-16T04:06:00.854Z,11.72
2022-11-16T04:09:23.513Z,11.84
2022-11-16T04:12:47.143Z,11.99
2022-11-16T04:16:10.226Z,11.81
2022-11-16T04:19:32.957Z,11.58
2022-11-16T04:22:59.693Z,11.61
2022-11-16T04:26:07.397Z,11.63
2022-11-16T04:29:14.464Z,11.62
2022-11-16T04:32:37.537Z,11.73
2022-11-16T04:36:10.807Z,11.75
2022-11-16T04:39:16.264Z,11.51
2022-11-16T04:42:22.808Z,11.50
2022-11-16T04:45:47.489Z,11.45
2022-11-16T04:48:54.005Z,11.45
2022-11-16T04:51:59.612Z,11.32
2022-11-16T04:55:06.980Z,11.31
2022-11-16T04:58:12.551Z,11.28
2022-11-16T05:01:18.103Z,11.16
2022-11-16T05:04:23.476Z,11.30
2022-11-16T05:07:29.333Z,11.42
2022-11-16T05:10:40.991Z,11.59
2022-11-16T05:13:47.680Z,11.49
2022-11-16T05:16:52.921Z,11.13
2022-11-16T05:20:16.322Z,11.02
2022-11-16T05:23:45.191Z,11.04
2022-11-16T05:26:52.096Z,10.59
2022-11-16T05:29:57.957Z,10.77
2022-11-16T05:33:03.471Z,10.86
2022-11-16T05:36:11.212Z,10.77
2022-11-16T05:39:17.478Z,10.63
2022-11-16T05:42:22.983Z,10.59
2022-11-16T05:45:28.602Z,10.71
2022-11-16T05:48:34.852Z,10.74
2022-11-16T05:51:41.975Z,10.79
2022-11-16T05:54:47.544Z,10.79
2022-11-16T05:57:52.863Z,10.78
2022-11-16T06:00:58.535Z,10.96
2022-11-16T06:04:04.360Z,10.89
2022-11-16T06:07:10.346Z,10.79
2022-11-16T06:10:16.082Z,10.94
2022-11-16T06:13:22.774Z,10.88
2022-11-16T06:16:29.485Z,10.71
2022-11-16T06:19:35.571Z,10.95
2022-11-16T06:22:41.214Z,11.02
2022-11-16T06:25:46.824Z,10.93
2022-11-16T06:28:54.944Z,10.48
2022-11-16T06:32:00.797Z,10.38
2022-11-16T06:35:07.072Z,10.60
2022-11-16T06:38:18.459Z,10.50
2022-11-16T06:41:26.110Z,10.43
2022-11-16T06:44:31.637Z,10.66
2022-11-16T06:47:39.703Z,10.69
2022-11-16T06:50:45.705Z,10.68
2022-11-16T06:53:51.696Z,10.82
2022-11-16T06:56:57.681Z,10.75
2022-11-16T07:00:03.260Z,10.68
2022-11-16T07:03:09.260Z,10.64
2022-11-16T07:06:15.668Z,10.65
2022-11-16T07:09:23.240Z,10.86
2022-11-16T07:12:29.198Z,10.91
2022-11-16T07:15:35.654Z,10.84
2022-11-16T07:18:42.121Z,11.03
2022-11-16T07:21:47.712Z,10.92
2022-11-16T07:24:55.529Z,11.06
2022-11-16T07:28:01.619Z,11.25
2022-11-16T07:31:09.204Z,11.06
2022-11-16T07:34:15.076Z,10.87
2022-11-16T07:37:27.420Z,10.95
2022-11-16T07:40:33.066Z,11.10
2022-11-16T07:43:40.006Z,11.28
2022-11-16T07:46:54.341Z,11.52
2022-11-16T07:49:59.633Z,11.63
2022-11-16T07:53:06.688Z,11.50
2022-11-16T07:56:12.717Z,11.38
2022-11-16T07:59:18.590Z,11.36
2022-11-16T08:02:24.594Z,11.72
2022-11-16T08:05:31.008Z,11.79
2022-11-16T08:08:36.763Z,11.84
2022-11-16T08:11:42.708Z,11.77
2022-11-16T08:14:48.343Z,12.08
2022-11-16T08:17:53.885Z,12.06
2022-11-16T08:21:01.849Z,11.87
2022-11-16T08:24:08.899Z,11.98
2022-11-16T08:27:17.605Z,11.95
2022-11-16T08:30:28.281Z,11.96
2022-11-16T08:33:33.782Z,11.94
2022-11-16T08:36:41.410Z,11.95
2022-11-16T08:39:47.076Z,11.92
2022-11-16T08:42:57.128Z,11.56
2022-11-16T08:46:05.363Z,10.98
2022-11-16T08:49:11.508Z,10.90
2022-11-16T08:52:16.995Z,11.12
2022-11-16T08:55:22.559Z,11.27
2022-11-16T08:58:27.893Z,11.28
2022-11-16T09:01:33.681Z,11.50
2022-11-16T09:04:39.205Z,11.49
2022-11-16T09:07:45.830Z,11.83
2022-11-16T09:10:51.200Z,11.87
2022-11-16T09:13:57.522Z,11.47
2022-11-16T09:17:02.916Z,11.74
2022-11-16T09:20:09.732Z,11.81
2022-11-16T09:23:15.057Z,11.74
2022-11-16T09:26:23.308Z,11.82
2022-11-16T09:29:28.947Z,12.05
2022-11-16T09:32:34.388Z,12.31
2022-11-16T09:35:43.560Z,12.18
2022-11-16T09:42:29.888Z,12.18
2022-11-16T09:45:40.322Z,12.22
2022-11-16T09:48:45.859Z,11.65
2022-11-16T09:51:52.556Z,10.73
2022-11-16T09:55:00.539Z,11.25
2022-11-16T09:58:09.921Z,11.55
2022-11-16T10:01:22.513Z,11.98
2022-11-16T10:04:37.206Z,12.08
2022-11-16T10:07:44.382Z,12.10
2022-11-16T10:10:55.969Z,11.93
2022-11-16T10:14:07.238Z,11.97
2022-11-16T10:17:18.848Z,11.80
2022-11-16T10:20:43.780Z,10.58
2022-11-16T10:23:56.722Z,11.05
2022-11-16T10:27:09.298Z,11.43
2022-11-16T10:30:17.146Z,11.56
2022-11-16T10:33:24.028Z,11.89
2022-11-16T10:36:31.521Z,12.05
2022-11-16T10:39:41.085Z,11.45
2022-11-16T10:42:48.159Z,10.52
2022-11-16T10:45:58.294Z,11.14
2022-11-16T10:49:09.567Z,11.61
2022-11-16T10:52:15.046Z,12.04
2022-11-16T10:55:21.938Z,12.14
2022-11-16T10:58:27.270Z,11.05
2022-11-16T11:01:37.384Z,10.27
2022-11-16T11:05:01.351Z,10.97
2022-11-16T11:08:08.600Z,11.41
2022-11-16T11:11:38.499Z,11.73
2022-11-16T11:15:01.033Z,11.85
2022-11-16T11:18:13.283Z,11.99
2022-11-16T11:21:21.007Z,12.21
2022-11-16T11:27:53.775Z,10.34
2022-11-16T11:31:01.614Z,10.55
2022-11-16T11:34:14.969Z,11.08
2022-11-16T11:37:22.620Z,11.15
2022-11-16T11:40:28.756Z,11.23
2022-11-16T11:43:35.522Z,11.37
2022-11-16T11:47:18.610Z,11.52
2022-11-16T11:50:12.358Z,11.63
2022-11-16T11:53:23.381Z,11.27
2022-11-16T11:56:30.715Z,10.20
2022-11-16T11:59:36.226Z,10.61
2022-11-16T12:02:49.636Z,10.97
2022-11-16T12:06:06.069Z,11.30
2022-11-16T12:09:22.402Z,11.51
2022-11-16T12:12:38.339Z,10.37
2022-11-16T12:15:52.860Z,10.00
2022-11-16T12:19:17.999Z,10.67
2022-11-16T12:22:33.919Z,11.19
2022-11-16T12:25:43.963Z,11.22
2022-11-16T12:28:56.934Z,11.52
2022-11-16T12:32:19.154Z,10.69
2022-11-16T12:35:31.687Z,9.91
2022-11-16T12:38:48.615Z,10.64
2022-11-16T12:42:13.892Z,11.13
2022-11-16T12:45:33.676Z,11.16
2022-11-16T12:48:45.819Z,10.09
2022-11-16T12:51:57.150Z,10.17
2022-11-16T12:55:25.862Z,10.98
2022-11-16T12:58:39.493Z,11.34
2022-11-16T13:01:49.115Z,10.06
2022-11-16T13:04:58.529Z,10.06
2022-11-16T13:08:05.995Z,10.57
2022-11-16T13:11:15.744Z,10.93
2022-11-16T13:14:25.508Z,10.03
2022-11-16T13:17:33.450Z,9.42
2022-11-16T13:20:45.051Z,10.15
2022-11-16T13:23:54.783Z,10.65
2022-11-16T13:27:07.714Z,10.75
2022-11-16T13:30:19.282Z,9.91
2022-11-16T13:33:29.245Z,9.32
2022-11-16T13:36:45.083Z,9.89
2022-11-16T13:40:08.692Z,10.43
2022-11-16T13:43:18.409Z,10.66
2022-11-16T13:46:54.081Z,10.23
2022-11-16T13:49:53.250Z,9.27
2022-11-16T13:56:29.510Z,10.83
2022-11-16T13:59:37.235Z,10.96
2022-11-16T14:02:43.169Z,9.88
2022-11-16T14:05:49.520Z,9.28
2022-11-16T14:08:55.647Z,9.94
2022-11-16T14:12:20.981Z,10.50
2022-11-16T14:15:28.593Z,10.69
2022-11-16T14:18:37.297Z,10.71
2022-11-16T14:21:48.903Z,9.70
2022-11-16T14:24:58.677Z,9.39
2022-11-16T14:28:14.567Z,10.18
2022-11-16T14:31:23.025Z,10.77
2022-11-16T14:34:31.655Z,10.74
2022-11-16T14:37:39.911Z,9.68
2022-11-16T14:40:47.257Z,9.11
2022-11-16T14:43:55.132Z,9.82
2022-11-16T14:47:00.701Z,10.42
2022-11-16T14:50:18.315Z,10.53
2022-11-16T14:53:27.256Z,10.64
2022-11-16T14:56:32.872Z,9.56
2022-11-16T14:59:38.446Z,8.97
2022-11-16T15:02:51.040Z,9.78
2022-11-16T15:05:59.836Z,10.27
2022-11-16T15:09:05.915Z,10.24
2022-11-16T15:12:32.976Z,10.49
2022-11-16T15:15:38.761Z,10.57
2022-11-16T15:18:56.303Z,9.38
2022-11-16T15:22:02.737Z,9.06
2022-11-16T15:25:24.899Z,9.67
2022-11-16T15:28:31.793Z,10.22
2022-11-16T15:31:38.485Z,10.32
2022-11-16T15:34:44.336Z,10.28
2022-11-16T15:37:52.218Z,10.58
2022-11-16T15:40:58.798Z,9.71
2022-11-16T15:44:14.655Z,9.06
2022-11-16T15:47:22.807Z,9.60
2022-11-16T15:50:29.153Z,9.71
2022-11-16T15:53:36.875Z,10.01
2022-11-16T15:56:43.646Z,10.18
2022-11-16T15:59:50.642Z,10.15
2022-11-16T16:02:56.620Z,9.84
2022-11-16T16:06:02.542Z,9.70
2022-11-16T16:09:08.011Z,9.69
2022-11-16T16:12:20.175Z,9.62
2022-11-16T16:15:27.009Z,9.62
2022-11-16T16:18:41.627Z,9.80
2022-11-16T16:21:52.464Z,9.54
2022-11-16T16:24:58.414Z,9.87
2022-11-16T16:28:04.055Z,9.87
2022-11-16T16:31:10.099Z,9.55
2022-11-16T16:34:17.974Z,9.60
2022-11-16T16:37:23.782Z,9.87
2022-11-16T16:40:29.436Z,9.83
2022-11-16T16:43:35.799Z,9.83
2022-11-16T16:46:41.325Z,9.79
2022-11-16T16:49:46.873Z,10.09
2022-11-16T16:52:52.209Z,9.56
2022-11-16T16:56:00.359Z,8.36
2022-11-16T16:59:06.026Z,8.68
2022-11-16T17:02:12.585Z,9.04
2022-11-16T17:05:18.283Z,9.13
2022-11-16T17:08:23.797Z,9.37
2022-11-16T17:11:29.938Z,9.47
2022-11-16T17:14:35.610Z,9.38
2022-11-16T17:17:42.949Z,9.35
2022-11-16T17:20:48.326Z,9.37
2022-11-16T17:23:53.709Z,9.28
2022-11-16T17:26:59.181Z,9.31
2022-11-16T17:30:05.200Z,9.30
2022-11-16T17:33:10.473Z,9.23
2022-11-16T17:36:16.376Z,9.20
2022-11-16T17:39:22.585Z,9.09
2022-11-16T17:42:28.661Z,9.25
2022-11-16T17:45:34.084Z,9.25
2022-11-16T17:48:40.478Z,9.29
2022-11-16T17:51:46.056Z,9.31
2022-11-16T17:54:51.377Z,9.30
2022-11-16T17:57:58.591Z,9.19
2022-11-16T18:01:04.036Z,9.34
2022-11-16T18:04:09.436Z,9.42
2022-11-16T18:07:14.829Z,9.15
2022-11-16T18:10:20.343Z,9.06
2022-11-16T18:13:25.882Z,9.12
2022-11-16T18:16:32.251Z,9.44
2022-11-16T18:19:37.828Z,9.48
2022-11-16T18:22:43.345Z,9.01
2022-11-16T18:25:48.982Z,8.82
2022-11-16T18:28:54.385Z,8.91
2022-11-16T18:31:59.803Z,8.95
2022-11-16T18:35:10.029Z,8.60
2022-11-16T18:38:15.412Z,8.80
2022-11-16T18:41:21.895Z,8.79
2022-11-16T18:44:27.305Z,8.69
2022-11-16T18:47:32.717Z,8.52
2022-11-16T18:50:38.272Z,8.66
2022-11-16T18:53:46.439Z,9.00
2022-11-16T18:56:51.877Z,9.04
2022-11-16T18:59:57.321Z,8.99
2022-11-16T19:03:05.761Z,8.74
2022-11-16T19:06:15.034Z,8.81
2022-11-16T19:09:20.645Z,8.75
2022-11-16T19:12:26.169Z,8.83
2022-11-16T19:15:31.747Z,8.98
2022-11-16T19:18:37.885Z,8.60
2022-11-16T19:21:43.428Z,8.92
2022-11-16T19:24:48.830Z,8.79
2022-11-16T19:27:54.119Z,8.47
2022-11-16T19:30:59.831Z,8.37
2022-11-16T19:34:06.223Z,8.32
2022-11-16T19:37:11.840Z,8.11
2022-11-16T19:40:22.197Z,7.73
2022-11-16T19:43:30.163Z,7.78
2022-11-16T19:46:38.194Z,7.92
2022-11-16T19:49:43.636Z,7.81
2022-11-16T19:52:49.005Z,7.85
2022-11-16T19:55:57.426Z,7.91
2022-11-16T19:59:02.709Z,7.88
2022-11-16T20:02:10.360Z,7.78
2022-11-16T20:05:16.381Z,6.69
2022-11-16T20:08:21.793Z,6.61
2022-11-16T20:11:27.911Z,7.32
2022-11-16T20:14:33.389Z,7.70
2022-11-16T20:17:39.025Z,7.67
2022-11-16T20:20:44.786Z,7.72
2022-11-16T20:23:51.743Z,7.64
2022-11-16T20:26:57.090Z,7.70
2022-11-16T20:30:08.009Z,6.82
2022-11-16T20:33:15.540Z,6.09
2022-11-16T20:36:22.884Z,6.71
2022-11-16T20:39:28.403Z,7.24
2022-11-16T20:42:34.068Z,7.71
2022-11-16T20:45:39.747Z,7.60
2022-11-16T20:48:45.641Z,6.36
2022-11-16T20:51:51.761Z,6.61
2022-11-16T20:55:00.148Z,7.37
2022-11-16T20:58:05.626Z,7.41
2022-11-16T21:01:13.243Z,7.56
2022-11-16T21:04:21.627Z,7.60
2022-11-16T21:07:27.063Z,6.41
2022-11-16T21:10:35.417Z,6.56
2022-11-16T21:13:58.676Z,7.49
2022-11-16T21:17:04.555Z,7.62
2022-11-16T21:20:28.363Z,6.84
2022-11-16T21:23:39.105Z,5.94
2022-11-16T21:26:44.490Z,6.76
2022-11-16T21:29:49.652Z,7.40
2022-11-16T21:32:54.899Z,7.42
2022-11-16T21:36:03.522Z,7.26
2022-11-16T21:39:09.088Z,7.25
2022-11-16T21:42:14.443Z,7.62
2022-11-16T21:45:19.768Z,7.81
2022-11-16T21:48:25.174Z,6.90
2022-11-16T21:51:30.816Z,6.19
2022-11-16T21:54:48.565Z,7.02
2022-11-16T21:57:53.850Z,7.31
2022-11-16T22:00:59.933Z,7.75
2022-11-16T22:04:22.995Z,7.81
2022-11-16T22:07:34.492Z,7.79
2022-11-16T22:10:39.827Z,6.68
2022-11-16T22:13:45.652Z,6.45
2022-11-16T22:16:51.686Z,7.07
2022-11-16T22:19:57.764Z,7.63
2022-11-16T22:23:03.609Z,7.86
2022-11-16T22:26:10.640Z,8.04
2022-11-16T22:29:16.507Z,7.22
2022-11-16T22:32:22.279Z,6.57
2022-11-16T22:35:31.036Z,7.31
2022-11-16T22:38:39.296Z,7.90
2022-11-16T22:41:45.216Z,8.15
2022-11-16T22:44:51.187Z,7.40
2022-11-16T22:47:57.200Z,6.59
2022-11-16T22:51:13.577Z,7.19
2022-11-16T22:54:22.199Z,7.52
2022-11-16T22:57:30.543Z,8.02
2022-11-16T23:00:41.780Z,8.23
2022-11-16T23:03:48.718Z,7.21
2022-11-16T23:06:54.868Z,6.25
2022-11-16T23:10:00.940Z,6.79
2022-11-16T23:13:24.383Z,7.69
2022-11-16T23:16:30.401Z,8.43
2022-11-16T23:19:53.905Z,8.06
2022-11-16T23:23:17.482Z,6.71
2022-11-16T23:26:42.284Z,6.88
2022-11-16T23:29:48.548Z,7.38
2022-11-16T23:32:54.473Z,7.65
2022-11-16T23:36:00.313Z,8.16
2022-11-16T23:39:06.862Z,8.24
2022-11-16T23:42:30.266Z,8.16
2022-11-16T23:45:36.235Z,7.82
2022-11-16T23:48:42.213Z,6.74
2022-11-16T23:51:47.986Z,7.33
2022-11-16T23:54:53.883Z,7.87
2022-11-16T23:57:59.718Z,8.05
